Time;durP1;ratioP1;P1;durP2;ratioP2;P2;SDS_P1;SDS_P2;PMS_P1;PMS_P2;Temp;Humidity;BMP_temperature;BMP_pressure;BME280_temperature;BME280_humidity;BME280_pressure;Samples;Min_cycle;Max_cycle;Signal;HPM_P1;HPM_P2
2022/04/10 00:00:40;;;;;;;;;;;;;;;17.00;69.39;100259.91;5042583;28;20052;-78
2022/04/10 00:03:07;;;;;;;10.35;4.80;;;;;;;16.92;69.48;100259.72;5043451;28;19977;-78
2022/04/10 00:05:32;;;;;;;12.48;5.35;;;;;;;16.90;69.45;100248.25;5032288;28;20033;-78
2022/04/10 00:07:58;;;;;;;10.00;4.82;;;;;;;16.88;69.74;100247.34;5038026;28;20017;-78
2022/04/10 00:10:24;;;;;;;9.38;4.78;;;;;;;16.92;69.46;100250.94;5042689;28;20041;-77
2022/04/10 00:12:49;;;;;;;9.27;5.13;;;;;;;16.90;69.29;100245.63;5032059;28;20100;-78
2022/04/10 00:15:15;;;;;;;13.07;4.63;;;;;;;16.89;69.23;100243.88;5034299;28;20491;-78
2022/04/10 00:17:41;;;;;;;7.28;4.28;;;;;;;16.88;69.32;100242.06;5031737;28;20025;-77
2022/04/10 00:20:09;;;;;;;8.02;4.50;;;;;;;16.92;69.39;100241.28;5041993;28;20069;-77
2022/04/10 00:22:46;;;;;;;9.85;4.82;;;;;;;16.94;69.30;100247.47;5043915;28;20059;-77
2022/04/10 00:25:14;;;;;;;9.23;5.03;;;;;;;16.93;69.57;100236.88;5041375;28;20029;-78
2022/04/10 00:27:40;;;;;;;10.68;4.97;;;;;;;16.78;69.90;100224.25;5031696;28;20029;-78
2022/04/10 00:30:07;;;;;;;11.52;5.15;;;;;;;16.82;69.98;100234.03;5045099;28;20037;-77
2022/04/10 00:32:32;;;;;;;9.27;4.72;;;;;;;16.87;69.89;100233.28;5040137;28;20064;-78
2022/04/10 00:34:58;;;;;;;10.85;4.85;;;;;;;16.89;69.63;100243.88;5046554;28;20110;-78
2022/04/10 00:37:24;;;;;;;10.10;4.57;;;;;;;16.88;69.61;100245.59;5050707;28;20037;-78
2022/04/10 00:39:50;;;;;;;8.18;4.35;;;;;;;16.85;69.51;100239.38;5032660;28;20025;-78
2022/04/10 00:42:16;;;;;;;8.48;4.63;;;;;;;16.87;69.66;100253.50;5031498;28;20103;-78
2022/04/10 00:44:41;;;;;;;10.40;4.80;;;;;;;16.86;69.37;100247.31;5034576;28;20458;-78
2022/04/10 00:47:10;;;;;;;11.60;4.47;;;;;;;16.86;69.30;100255.22;5045851;28;20033;-78
2022/04/10 00:49:39;;;;;;;9.18;4.28;;;;;;;16.86;69.24;100252.56;5029579;28;20033;-78
2022/04/10 00:52:06;;;;;;;8.15;4.55;;;;;;;16.84;69.69;100246.38;5051440;28;20087;-78
2022/04/10 00:54:33;;;;;;;9.98;4.35;;;;;;;16.81;69.67;100242.81;5033926;28;20025;-78
2022/04/10 00:57:00;;;;;;;9.45;4.22;;;;;;;16.86;69.62;100244.66;5037579;28;20031;-78
2022/04/10 00:59:27;;;;;;;9.40;4.40;;;;;;;16.85;69.51;100242.03;5015906;28;20120;-78
2022/04/10 01:01:53;;;;;;;10.32;4.50;;;;;;;16.80;69.40;100238.34;5035035;28;20160;-78
2022/04/10 01:04:19;;;;;;;7.38;4.38;;;;;;;16.78;69.61;100235.69;5031147;28;20025;-79
2022/04/10 01:06:47;;;;;;;12.23;4.63;;;;;;;16.79;69.31;100234.84;5044761;28;20041;-78
2022/04/10 01:09:13;;;;;;;8.63;4.30;;;;;;;16.79;69.16;100242.75;5051018;28;20032;-79
2022/04/10 01:11:39;;;;;;;9.85;4.72;;;;;;;16.80;69.27;100246.25;5050857;28;20031;-78
2022/04/10 01:14:05;;;;;;;10.20;4.60;;;;;;;16.80;69.19;100249.81;5032928;28;20037;-78
2022/04/10 01:16:31;;;;;;;;;;;;;;;16.85;69.06;100255.22;5045553;28;20478;-79
2022/04/10 01:18:57;;;;;;;9.27;4.22;;;;;;;16.77;69.26;100251.50;5040372;28;19917;-78
2022/04/10 01:21:25;;;;;;;9.02;4.35;;;;;;;16.77;69.16;100246.22;5038309;28;20045;-78
2022/04/10 01:23:55;;;;;;;11.07;4.32;;;;;;;16.75;69.25;100238.28;5014567;28;20029;-78
2022/04/10 01:26:25;;;;;;;11.50;4.38;;;;;;;16.73;69.09;100232.06;5031099;28;20069;-79
2022/04/10 01:29:11;;;;;;;8.48;4.22;;;;;;;16.75;69.04;100235.63;5031255;28;20435;-79
2022/04/10 01:31:39;;;;;;;12.20;4.28;;;;;;;16.71;69.12;100230.28;5051136;28;20021;-79
2022/04/10 01:34:06;;;;;;;10.20;4.03;;;;;;;16.72;69.30;100234.66;5050425;28;20109;-79
2022/04/10 01:36:33;;;;;;;13.40;4.40;;;;;;;16.71;68.98;100225.00;5050310;28;20025;-79
2022/04/10 01:39:00;;;;;;;10.63;4.32;;;;;;;16.73;68.92;100223.28;5038476;28;20024;-79
2022/04/10 01:41:26;;;;;;;10.77;4.35;;;;;;;16.74;68.98;100225.03;5049924;28;20350;-79
2022/04/10 01:43:54;;;;;;;12.05;4.35;;;;;;;16.73;68.89;100228.56;5050385;28;20387;-79
2022/04/10 01:46:22;;;;;;;8.48;4.22;;;;;;;16.73;68.61;100231.19;5050581;28;20025;-79
2022/04/10 01:48:48;;;;;;;10.07;4.88;;;;;;;16.54;68.88;100198.28;5038556;28;20037;-78
2022/04/10 01:51:15;;;;;;;12.23;4.50;;;;;;;16.69;68.84;100230.22;5032344;28;20036;-78
2022/04/10 01:53:41;;;;;;;8.60;4.13;;;;;;;16.71;68.75;100232.91;5044421;28;20052;-78
2022/04/10 01:56:08;;;;;;;11.02;4.30;;;;;;;16.69;68.63;100228.47;5030390;28;20032;-78
2022/04/10 01:58:36;;;;;;;10.82;4.45;;;;;;;16.66;68.71;100231.06;5031294;28;20049;-79
2022/04/10 02:01:06;;;;;;;8.23;4.15;;;;;;;16.67;68.57;100227.56;5013204;28;20028;-78
2022/04/10 02:03:32;;;;;;;9.15;4.32;;;;;;;16.69;68.65;100236.38;5030947;28;20029;-78
2022/04/10 02:05:58;;;;;;;10.05;4.55;;;;;;;16.66;68.30;100235.44;5037477;28;20033;-79
2022/04/10 02:08:24;;;;;;;8.48;4.40;;;;;;;16.68;68.41;100244.28;5050869;28;20028;-78
2022/04/10 02:10:50;;;;;;;9.93;4.32;;;;;;;16.67;68.50;100238.09;5050998;28;20486;-78
2022/04/10 02:13:16;;;;;;;10.88;4.43;;;;;;;16.64;68.15;100229.25;5050896;28;20033;-78
2022/04/10 02:15:41;;;;;;;9.45;3.95;;;;;;;16.67;67.97;100238.09;5050521;28;20522;-78
2022/04/10 02:18:07;;;;;;;10.50;4.50;;;;;;;16.67;68.11;100243.38;5054075;28;20486;-79
2022/04/10 02:20:33;;;;;;;11.55;4.10;;;;;;;16.68;68.08;100228.47;5053796;28;20063;-79
2022/04/10 02:22:59;;;;;;;11.35;4.32;;;;;;;16.68;68.24;100236.38;5054610;28;20086;-78
2022/04/10 02:25:25;;;;;;;8.98;4.25;;;;;;;16.66;68.23;100235.44;5053419;28;20060;-78
2022/04/10 02:27:50;;;;;;;6.53;3.83;;;;;;;16.62;68.12;100237.13;5054364;28;20076;-79
2022/04/10 02:30:18;;;;;;;11.15;4.25;;;;;;;16.64;68.23;100245.06;5025744;28;20043;-79
2022/04/10 02:32:44;;;;;;;10.57;4.50;;;;;;;16.61;68.20;100235.34;5034280;28;20083;-79
2022/04/10 02:35:09;;;;;;;;;;;;;;;16.68;68.23;100247.81;5034496;28;20083;-79
2022/04/10 02:37:36;;;;;;;11.85;4.13;;;;;;;16.58;67.93;100229.13;5036955;28;19921;-78
2022/04/10 02:40:03;;;;;;;7.82;4.28;;;;;;;16.62;68.12;100241.53;5053967;28;20032;-78
2022/04/10 02:42:34;;;;;;;9.73;4.03;;;;;;;16.61;68.28;100235.34;5044797;28;20037;-78
2022/04/10 02:45:00;;;;;;;10.18;4.00;;;;;;;16.58;67.98;100230.00;5032863;28;20024;-78
2022/04/10 02:47:26;;;;;;;8.82;3.97;;;;;;;16.61;67.86;100235.34;5053286;28;20068;-78
2022/04/10 02:49:51;;;;;;;13.20;4.75;;;;;;;16.56;68.39;100225.56;5038611;28;20614;-78
2022/04/10 02:52:17;;;;;;;10.25;4.30;;;;;;;16.62;67.98;100237.13;5045804;28;20170;-78
2022/04/10 02:54:44;;;;;;;9.50;4.47;;;;;;;16.58;67.91;100222.09;5034073;28;20483;-78
2022/04/10 02:57:10;;;;;;;9.65;4.03;;;;;;;16.56;67.99;100236.13;5042518;28;20443;-78
2022/04/10 02:59:36;;;;;;;9.75;4.00;;;;;;;16.59;68.04;100236.16;5053547;28;20032;-79
2022/04/10 03:02:02;;;;;;;;;;;;;;;16.65;67.80;100247.72;5054219;28;20040;-79
2022/04/10 03:04:27;;;;;;;10.63;3.92;;;;;;;16.56;68.14;100250.19;5053219;28;19912;-79
2022/04/10 03:06:53;;;;;;;11.07;4.38;;;;;;;16.58;67.97;100259.00;5053526;28;20036;-79
2022/04/10 03:09:19;;;;;;;10.27;4.20;;;;;;;16.51;67.92;100243.00;5052741;28;20414;-79
2022/04/10 03:11:44;;;;;;;7.47;3.92;;;;;;;16.58;67.89;100244.94;5053365;28;20040;-79
2022/04/10 03:14:10;;;;;;;7.70;3.95;;;;;;;16.56;68.00;100242.25;5053335;28;20178;-78
2022/04/10 03:16:36;;;;;;;9.85;4.30;;;;;;;16.57;67.93;100246.66;5036117;28;20541;-79
2022/04/10 03:19:02;;;;;;;9.90;3.95;;;;;;;16.56;67.88;100249.28;5032925;28;20029;-79
2022/04/10 03:21:27;;;;;;;11.60;4.10;;;;;;;16.56;67.93;100259.84;5033118;28;20507;-79
2022/04/10 03:23:53;;;;;;;11.25;3.83;;;;;;;16.53;68.17;100249.22;5033234;28;20025;-78
2022/04/10 03:26:19;;;;;;;6.90;4.15;;;;;;;16.52;68.21;100242.19;5048841;28;20067;-77
2022/04/10 03:28:44;;;;;;;12.10;4.45;;;;;;;16.54;68.03;100246.63;5032815;28;20503;-78
2022/04/10 03:31:10;;;;;;;8.63;4.10;;;;;;;16.49;67.84;100245.63;5046539;28;20486;-78
2022/04/10 03:33:35;;;;;;;8.50;3.88;;;;;;;16.55;67.98;100252.78;5036315;28;20041;-78
2022/04/10 03:36:01;;;;;;;8.77;3.53;;;;;;;16.53;68.22;100265.03;5050656;28;20025;-79
2022/04/10 03:38:27;;;;;;;12.63;3.88;;;;;;;16.53;68.01;100273.84;5034790;28;20021;-79
2022/04/10 03:40:52;;;;;;;9.45;4.15;;;;;;;16.47;68.11;100274.59;5040165;28;20895;-78
2022/04/10 03:43:19;;;;;;;9.80;4.10;;;;;;;16.53;67.93;100292.28;5032758;28;20040;-78
2022/04/10 03:45:44;;;;;;;10.52;4.05;;;;;;;16.52;67.87;100298.41;5044677;28;20036;-79
2022/04/10 03:48:10;;;;;;;9.52;4.25;;;;;;;16.53;68.15;100294.03;5032960;28;20100;-78
2022/04/10 03:50:36;;;;;;;11.73;4.38;;;;;;;16.48;68.00;100288.66;5044619;28;20461;-79
2022/04/10 03:53:03;;;;;;;10.63;4.20;;;;;;;16.51;67.89;100293.09;5036371;28;20026;-78
2022/04/10 03:55:29;;;;;;;8.52;4.00;;;;;;;16.49;67.92;100285.19;5041062;28;20033;-78
2022/04/10 03:57:55;;;;;;;10.13;4.30;;;;;;;16.48;67.92;100291.28;5043034;28;20033;-78
2022/04/10 04:00:20;;;;;;;12.23;4.50;;;;;;;16.49;67.66;100285.19;5033520;28;20041;-78
2022/04/10 04:02:46;;;;;;;9.32;4.13;;;;;;;16.51;68.00;100294.00;5050522;28;20039;-78
2022/04/10 04:05:12;;;;;;;11.25;3.95;;;;;;;16.38;68.11;100279.66;5051776;28;20046;-79
2022/04/10 04:07:39;;;;;;;13.02;4.28;;;;;;;16.50;68.11;100294.84;5052100;28;20413;-79
2022/04/10 04:10:05;;;;;;;10.45;4.15;;;;;;;16.46;68.03;100290.34;5046311;28;20025;-78
2022/04/10 04:12:31;;;;;;;10.93;4.50;;;;;;;16.44;68.35;100292.94;5032854;28;20029;-79
2022/04/10 04:14:57;;;;;;;6.75;3.47;;;;;;;16.44;68.75;100286.81;5051743;28;20029;-79
2022/04/10 04:17:22;;;;;;;7.40;3.83;;;;;;;16.44;68.64;100286.81;5051849;28;20040;-79
2022/04/10 04:19:51;;;;;;;10.70;4.38;;;;;;;16.47;68.64;100294.78;5047624;28;20120;-79
2022/04/10 04:22:17;;;;;;;7.95;3.70;;;;;;;16.47;68.70;100281.63;5046189;28;20520;-78
2022/04/10 04:24:43;;;;;;;8.45;3.97;;;;;;;16.38;68.84;100270.84;5047698;28;20033;-78
2022/04/10 04:27:09;;;;;;;9.48;4.00;;;;;;;16.45;68.61;100278.06;5050382;28;20036;-78
2022/04/10 04:29:35;;;;;;;10.52;4.18;;;;;;;16.43;68.63;100274.50;5050846;28;20418;-78
2022/04/10 04:32:01;;;;;;;6.85;3.60;;;;;;;16.41;69.04;100276.19;5040360;28;20499;-77
2022/04/10 04:34:26;;;;;;;8.25;4.20;;;;;;;16.43;69.00;100275.38;5051736;28;20033;-77
2022/04/10 04:36:52;;;;;;;9.73;3.70;;;;;;;16.38;68.76;100279.66;5043715;28;20499;-77
2022/04/10 04:39:18;;;;;;;11.07;4.00;;;;;;;16.38;69.00;100284.94;5049408;28;20083;-77
2022/04/10 04:41:44;;;;;;;10.50;3.97;;;;;;;16.36;68.85;100281.38;5031420;28;20026;-78
2022/04/10 04:44:09;;;;;;;7.88;4.00;;;;;;;16.41;69.04;100292.91;5032170;28;20029;-77
2022/04/10 04:46:35;;;;;;;11.95;4.38;;;;;;;16.42;68.97;100305.19;5045999;28;20375;-77
2022/04/10 04:49:01;;;;;;;9.60;4.07;;;;;;;16.36;69.14;100304.19;5050596;28;20441;-77
2022/04/10 04:51:27;;;;;;;9.05;3.88;;;;;;;16.41;69.01;100306.06;5048349;28;20479;-77
2022/04/10 04:53:53;;;;;;;11.40;4.80;;;;;;;16.40;69.14;100296.41;5047152;28;20025;-77
2022/04/10 04:56:19;;;;;;;9.55;4.20;;;;;;;16.39;69.06;100299.88;5030163;28;20107;-77
2022/04/10 04:58:44;;;;;;;11.40;4.15;;;;;;;16.40;68.75;100287.59;5035153;28;20037;-76
2022/04/10 05:01:10;;;;;;;9.55;3.97;;;;;;;16.37;68.69;100269.09;5035204;28;20029;-77
2022/04/10 05:03:36;;;;;;;9.27;4.15;;;;;;;16.43;69.01;100290.31;5039667;28;20041;-79
2022/04/10 05:06:01;;;;;;;8.98;4.10;;;;;;;16.39;69.41;100285.81;5031430;28;20124;-77
2022/04/10 05:08:27;;;;;;;7.32;4.05;;;;;;;16.38;69.12;100291.94;5032004;28;20029;-79
2022/04/10 05:10:53;;;;;;;7.85;3.78;;;;;;;16.41;69.25;100294.66;5049989;28;20029;-79
2022/04/10 05:13:18;;;;;;;9.82;4.13;;;;;;;16.35;69.30;100287.50;5051376;28;20508;-79
2022/04/10 05:15:44;;;;;;;7.07;3.60;;;;;;;16.39;69.24;100302.50;5048602;28;20025;-79
2022/04/10 05:18:09;;;;;;;9.75;4.22;;;;;;;16.39;69.33;100283.19;5047215;28;20025;-79
2022/04/10 05:20:37;;;;;;;7.60;3.95;;;;;;;16.35;69.36;100279.59;5048791;28;20049;-79
2022/04/10 05:23:02;;;;;;;8.80;4.30;;;;;;;16.35;69.36;100290.13;5050756;28;20021;-79
2022/04/10 05:25:47;;;;;;;5.78;4.00;;;;;;;16.34;69.56;100293.63;5042060;28;20091;-78
2022/04/10 05:28:13;;;;;;;7.80;4.10;;;;;;;16.31;69.33;100283.00;5050901;28;20733;-78
2022/04/10 05:30:38;;;;;;;9.18;3.95;;;;;;;16.35;69.49;100290.13;5045446;28;20061;-79
2022/04/10 05:33:04;;;;;;;8.57;4.40;;;;;;;16.35;69.61;100268.16;5026517;28;20055;-78
2022/04/10 05:35:30;;;;;;;8.57;4.15;;;;;;;16.34;69.41;100269.91;5048507;28;20094;-79
2022/04/10 05:37:56;;;;;;;10.80;4.50;;;;;;;16.36;69.43;100278.75;5031950;28;20028;-79
2022/04/10 05:40:22;;;;;;;9.10;4.60;;;;;;;16.36;69.37;100275.19;5048316;28;20620;-80
2022/04/10 05:42:47;;;;;;;9.18;4.93;;;;;;;16.32;69.49;100271.63;5030790;28;20078;-79
2022/04/10 05:45:13;;;;;;;9.18;4.78;;;;;;;16.33;69.46;100276.03;5030937;28;20033;-79
2022/04/10 05:47:41;;;;;;;8.75;4.20;;;;;;;16.38;69.51;100279.66;5030803;28;20228;-79
2022/04/10 05:50:08;;;;;;;7.55;4.40;;;;;;;16.26;69.60;100260.94;5045772;28;20033;-80
2022/04/10 05:52:38;;;;;;;8.55;4.15;;;;;;;16.24;69.72;100273.19;5052909;28;20025;-80
2022/04/10 05:55:05;;;;;;;8.32;4.28;;;;;;;16.29;69.99;100277.69;5054707;28;20110;-79
2022/04/10 05:57:36;;;;;;;6.40;3.83;;;;;;;16.29;70.06;100280.31;5054830;28;20108;-79
2022/04/10 06:00:08;;;;;;;6.90;3.90;;;;;;;16.27;70.22;100276.75;5050580;28;20032;-80
2022/04/10 06:02:33;;;;;;;8.52;4.35;;;;;;;16.27;70.01;100273.25;5051349;28;20052;-80
2022/04/10 06:04:59;;;;;;;8.27;4.18;;;;;;;16.31;70.01;100280.38;5054083;28;20474;-80
2022/04/10 06:07:25;;;;;;;8.43;4.00;;;;;;;16.35;69.62;100269.03;5050264;28;20120;-81
2022/04/10 06:09:58;;;;;;;;;;;;;;;16.40;69.75;100272.69;5037125;28;20469;-80
2022/04/10 06:12:24;;;;;;;7.22;4.05;;;;;;;16.32;69.55;100244.34;5041098;28;19908;-80
2022/04/10 06:14:50;;;;;;;8.25;4.10;;;;;;;16.29;69.85;100248.69;5042243;28;20026;-80
2022/04/10 06:17:15;;;;;;;7.10;4.40;;;;;;;16.36;69.71;100255.03;5034472;28;20037;-80
2022/04/10 06:19:41;;;;;;;8.38;3.95;;;;;;;16.35;69.72;100247.97;5035703;28;20057;-80
2022/04/10 06:22:08;;;;;;;7.70;4.10;;;;;;;16.34;69.96;100245.28;5053110;28;20104;-79
2022/04/10 06:24:34;;;;;;;6.90;4.03;;;;;;;16.35;70.02;100249.72;5054166;28;20024;-80
2022/04/10 06:27:00;;;;;;;7.78;3.80;;;;;;;16.29;69.89;100246.06;5053438;28;20505;-80
2022/04/10 06:29:26;;;;;;;7.97;4.13;;;;;;;16.35;69.77;100252.34;5036013;28;20465;-79
2022/04/10 06:31:52;;;;;;;8.05;3.80;;;;;;;16.36;69.81;100238.31;5035565;28;20033;-78
2022/04/10 06:34:18;;;;;;;8.50;4.30;;;;;;;16.33;69.56;100239.13;5043087;28;20186;-79
2022/04/10 06:36:44;;;;;;;7.13;4.47;;;;;;;16.38;69.71;100249.75;5048225;28;20516;-79
2022/04/10 06:39:14;;;;;;;11.20;4.53;;;;;;;16.38;69.84;100253.31;5053654;28;20033;-80
2022/04/10 06:41:39;;;;;;;7.93;4.55;;;;;;;16.40;69.57;100259.50;5035844;28;20040;-80
2022/04/10 06:44:05;;;;;;;12.10;4.47;;;;;;;16.39;69.64;100257.72;5053330;28;20025;-79
2022/04/10 06:46:31;;;;;;;7.97;4.13;;;;;;;16.44;69.47;100269.22;5048388;28;20033;-79
2022/04/10 06:48:57;;;;;;;10.57;4.80;;;;;;;16.48;69.58;100264.94;5033958;28;20411;-80
2022/04/10 06:51:22;;;;;;;10.15;5.00;;;;;;;16.42;69.56;100254.25;5016269;28;20409;-79
2022/04/10 06:53:48;;;;;;;11.25;4.78;;;;;;;16.49;69.63;100253.53;5049940;28;20029;-79
2022/04/10 06:56:14;;;;;;;9.68;4.80;;;;;;;16.58;69.27;100255.50;5042317;28;20030;-78
2022/04/10 06:58:40;;;;;;;9.20;4.78;;;;;;;16.46;69.41;100235.00;5046808;28;20107;-78
2022/04/10 07:01:06;;;;;;;8.90;4.70;;;;;;;16.51;69.42;100243.00;5042162;28;20111;-78
2022/04/10 07:03:35;;;;;;;10.43;4.45;;;;;;;16.53;69.43;100247.50;5051213;28;20024;-78
2022/04/10 07:06:00;;;;;;;7.82;4.30;;;;;;;16.51;69.56;100237.75;5037528;28;20034;-77
2022/04/10 07:08:26;;;;;;;13.60;5.03;;;;;;;16.57;69.26;100249.31;5033777;28;20121;-77
2022/04/10 07:10:55;;;;;;;8.77;4.10;;;;;;;16.59;69.38;100255.50;5042966;28;20029;-78
2022/04/10 07:13:22;;;;;;;10.00;4.60;;;;;;;16.52;69.23;100244.81;5052275;28;20203;-78
2022/04/10 07:15:50;;;;;;;12.50;4.70;;;;;;;16.57;69.28;100254.56;5043825;28;20030;-78
2022/04/10 07:18:16;;;;;;;8.90;4.40;;;;;;;16.57;69.47;100259.84;5034924;28;20087;-78
2022/04/10 07:20:48;;;;;;;8.68;4.80;;;;;;;16.55;69.49;100247.50;5042770;28;20044;-78
2022/04/10 07:25:58;;;;;;;9.13;4.20;;;;;;;16.55;69.49;100243.13;5053080;28;20099;-79
2022/04/10 07:28:24;;;;;;;9.13;4.47;;;;;;;16.57;69.33;100251.94;5048527;28;20029;-78
2022/04/10 07:30:49;;;;;;;8.07;4.05;;;;;;;16.61;69.54;100256.41;5047593;28;20564;-77
2022/04/10 07:33:15;;;;;;;9.93;4.13;;;;;;;16.60;69.44;100244.13;5045891;28;20053;-79
2022/04/10 07:35:44;;;;;;;8.43;4.40;;;;;;;16.62;69.50;100241.53;5015780;28;20091;-79
2022/04/10 07:38:10;;;;;;;8.68;4.50;;;;;;;16.61;69.54;100242.34;5012081;28;20052;-79
2022/04/10 07:40:39;;;;;;;7.50;3.88;;;;;;;16.56;69.56;100229.09;5044860;28;20073;-79
2022/04/10 07:43:13;;;;;;;10.77;4.55;;;;;;;16.54;69.57;100229.91;5051750;28;20075;-80
2022/04/10 07:48:23;;;;;;;10.02;4.13;;;;;;;16.55;70.02;100244.84;5033186;28;20033;-79
2022/04/10 07:50:49;;;;;;;11.23;4.57;;;;;;;16.52;70.04;100235.16;5039821;28;20025;-79
2022/04/10 07:53:14;;;;;;;11.10;4.55;;;;;;;16.58;69.77;100251.09;5036227;28;20483;-78
2022/04/10 07:55:40;;;;;;;8.77;3.83;;;;;;;16.58;69.80;100245.81;5040903;28;20391;-78
2022/04/10 07:58:06;;;;;;;9.80;4.35;;;;;;;16.56;70.18;100250.19;5032694;28;20494;-78
2022/04/10 08:00:34;;;;;;;9.90;4.28;;;;;;;16.54;70.27;100254.53;5033453;28;20431;-79
2022/04/10 08:03:02;;;;;;;9.70;4.53;;;;;;;16.42;70.54;100243.72;5032337;28;20029;-78
2022/04/10 08:05:28;;;;;;;9.93;4.53;;;;;;;16.44;70.47;100242.00;5041288;28;20029;-78
2022/04/10 08:07:54;;;;;;;12.18;4.72;;;;;;;16.49;70.37;100241.25;5054685;28;20084;-78
2022/04/10 08:10:20;;;;;;;;;;;;;;;16.58;70.51;100247.59;5039753;28;20483;-77
2022/04/10 08:12:45;;;;;;;7.18;4.15;;;;;;;16.61;70.27;100252.91;5034227;28;19917;-77
2022/04/10 08:15:11;;;;;;;12.75;4.97;;;;;;;16.65;70.18;100252.13;5047686;28;20101;-78
2022/04/10 08:17:37;;;;;;;13.23;4.90;;;;;;;16.58;70.29;100252.84;5032304;28;20041;-78
2022/04/10 08:20:04;;;;;;;;;;;;;;;16.59;70.36;100255.50;5042543;28;20061;-79
2022/04/10 08:22:32;;;;;;;9.60;4.20;;;;;;;16.61;70.47;100247.63;5051596;28;19959;-78
2022/04/10 08:25:06;;;;;;;12.13;5.25;;;;;;;16.61;70.34;100239.72;5037336;28;20064;-78
2022/04/10 08:27:32;;;;;;;11.45;4.65;;;;;;;16.53;70.69;100241.31;5032275;28;20029;-78
2022/04/10 08:29:58;;;;;;;11.00;4.40;;;;;;;16.68;70.37;100245.16;5037706;28;20049;-79
2022/04/10 08:32:24;;;;;;;11.05;4.40;;;;;;;16.59;70.73;100237.03;5038878;28;20104;-78
2022/04/10 08:34:50;;;;;;;9.85;4.78;;;;;;;16.68;70.38;100239.00;5050713;28;20108;-78
2022/04/10 08:37:16;;;;;;;;;;;;;;;16.71;70.31;100243.44;5034414;28;20476;-79
2022/04/10 08:39:41;;;;;;;8.90;4.65;;;;;;;16.65;70.69;100242.44;5038759;28;19916;-79
2022/04/10 08:42:08;;;;;;;10.02;4.57;;;;;;;16.64;70.96;100247.72;5046439;28;20050;-78
2022/04/10 08:44:34;;;;;;;12.95;4.97;;;;;;;16.69;70.72;100239.03;5048962;28;20124;-79
2022/04/10 08:47:00;;;;;;;;;;;;;;;16.69;70.73;100248.69;5051727;28;20021;-78
2022/04/10 08:49:29;;;;;;;10.40;4.50;;;;;;;16.72;70.66;100245.22;5050059;28;19920;-79
2022/04/10 08:51:55;;;;;;;9.95;4.30;;;;;;;16.71;70.60;100244.34;5051361;28;20024;-78
2022/04/10 08:54:21;;;;;;;;;;;;;;;16.79;70.49;100247.13;5051673;28;20029;-79
2022/04/10 08:56:47;;;;;;;16.83;5.43;;;;;;;16.65;70.92;100250.34;5051099;28;20389;-79
2022/04/10 08:59:12;;;;;;;10.68;4.05;;;;;;;16.57;71.24;100235.25;5050174;28;20525;-77
2022/04/10 09:01:38;;;;;;;14.48;5.28;;;;;;;16.67;71.54;100248.63;5033620;28;20083;-78
2022/04/10 09:04:04;;;;;;;19.95;5.90;;;;;;;16.89;71.68;100249.13;5013234;28;20026;-78
2022/04/10 09:06:30;;;;;;;30.55;8.23;;;;;;;17.05;71.68;100250.31;5030879;28;20029;-78
2022/04/10 09:09:13;;;;;;;24.48;7.60;;;;;;;17.06;71.64;100239.81;5031327;28;20543;-79
2022/04/10 09:11:42;;;;;;;30.27;7.20;;;;;;;17.23;70.98;100228.66;5045454;28;20108;-81
2022/04/10 09:14:07;;;;;;;29.77;6.03;;;;;;;17.76;69.60;100239.28;5039321;28;20060;-80
2022/04/10 09:16:33;;;;;;;29.92;6.60;;;;;;;17.46;70.56;100239.63;5030537;28;20057;-79
2022/04/10 09:19:01;;;;;;;24.13;6.10;;;;;;;17.23;70.91;100231.28;5035171;28;20060;-79
2022/04/10 09:21:32;;;;;;;27.30;6.60;;;;;;;17.05;71.50;100211.63;5031691;28;20052;-79
2022/04/10 09:24:02;;;;;;;26.60;6.90;;;;;;;17.08;71.71;100222.25;5050048;28;20024;-78
2022/04/10 09:26:44;;;;;;;26.17;6.88;;;;;;;17.03;71.46;100217.75;5048906;28;20048;-79
2022/04/10 09:29:10;;;;;;;30.13;7.15;;;;;;;17.02;71.47;100222.13;5049565;28;20383;-78
2022/04/10 09:31:36;;;;;;;20.20;6.43;;;;;;;17.01;71.59;100230.00;5050735;28;20083;-78
2022/04/10 09:34:05;;;;;;;21.27;6.10;;;;;;;16.89;71.43;100204.31;5051193;28;20465;-78
2022/04/10 09:36:38;;;;;;;20.60;6.05;;;;;;;17.01;71.51;100230.88;5050324;28;20110;-78
2022/04/10 09:39:16;;;;;;;17.25;5.88;;;;;;;17.04;71.16;100225.69;5051116;28;20029;-79
2022/04/10 09:41:45;;;;;;;19.17;5.85;;;;;;;16.98;71.53;100227.34;5050415;28;20051;-79
2022/04/10 09:44:17;;;;;;;17.55;5.55;;;;;;;16.96;71.44;100219.38;5034647;28;20601;-79
2022/04/10 09:46:43;;;;;;;21.95;5.88;;;;;;;16.96;71.32;100200.03;5046091;28;20036;-79
2022/04/10 09:49:17;;;;;;;21.52;5.82;;;;;;;16.99;71.23;100197.44;5030517;28;20144;-79
2022/04/10 09:51:59;;;;;;;16.13;6.03;;;;;;;16.99;71.07;100200.06;5048798;28;20036;-79
2022/04/10 09:54:25;;;;;;;20.10;5.90;;;;;;;17.05;70.85;100198.44;5050861;28;20086;-79
2022/04/10 09:56:54;;;;;;;20.80;5.78;;;;;;;17.02;71.08;100202.78;5018791;28;20109;-79
2022/04/10 09:59:23;;;;;;;14.77;5.57;;;;;;;16.98;70.91;100199.19;5039201;28;20491;-79
2022/04/10 10:01:49;;;;;;;16.00;5.68;;;;;;;17.03;70.68;100196.63;5013582;28;20462;-79
2022/04/10 10:04:16;;;;;;;15.50;5.10;;;;;;;17.07;70.68;100204.63;5024043;28;20025;-79
2022/04/10 10:06:42;;;;;;;16.65;6.10;;;;;;;17.01;70.74;100201.88;5012880;28;20026;-79
2022/04/10 10:09:07;;;;;;;;;;;;;;;17.05;70.71;100197.56;5044341;28;20108;-79
2022/04/10 10:11:34;;;;;;;11.30;4.95;;;;;;;16.92;70.99;100187.66;5032638;28;20008;-78
2022/04/10 10:14:00;;;;;;;18.65;5.53;;;;;;;16.95;70.80;100185.06;5032816;28;20028;-79
2022/04/10 10:16:26;;;;;;;20.08;5.75;;;;;;;16.97;71.02;100192.13;5032744;28;20090;-79
2022/04/10 10:18:52;;;;;;;17.77;5.70;;;;;;;17.00;70.93;100191.31;5050058;28;20821;-78
2022/04/10 10:21:18;;;;;;;13.65;5.20;;;;;;;16.99;71.17;100185.13;5031393;28;20049;-78
2022/04/10 10:23:47;;;;;;;13.38;5.50;;;;;;;16.96;70.86;100169.25;5032226;28;20083;-77
2022/04/10 10:26:12;;;;;;;20.67;5.88;;;;;;;17.05;70.74;100179.97;5050421;28;20053;-78
2022/04/10 10:28:56;;;;;;;15.20;5.38;;;;;;;17.02;70.85;100179.94;5038879;28;20072;-78
2022/04/10 10:31:51;;;;;;;16.70;5.15;;;;;;;17.05;70.73;100173.81;5050424;28;20021;-78
2022/04/10 10:34:17;;;;;;;14.63;5.10;;;;;;;17.02;70.64;100163.22;5032545;28;20378;-78
2022/04/10 10:36:42;;;;;;;15.30;5.45;;;;;;;17.02;70.81;100163.22;5050206;28;20500;-78
2022/04/10 10:39:09;;;;;;;15.60;5.22;;;;;;;16.97;70.82;100157.84;5031419;28;20033;-78
2022/04/10 10:41:37;;;;;;;11.55;4.72;;;;;;;17.04;70.73;100167.66;5031116;28;20120;-78
2022/04/10 10:44:25;;;;;;;16.77;5.18;;;;;;;17.04;70.72;100159.75;5042324;28;20026;-79
2022/04/10 10:47:03;;;;;;;;;;;;;;;17.17;70.45;100159.97;5034351;28;20033;-79
2022/04/10 10:49:29;;;;;;;;;;;;;;;17.16;70.31;100158.19;5034354;28;20467;-78
2022/04/10 10:51:55;;;;;;;14.80;5.30;;;;;;;17.12;70.45;100151.94;5016157;28;20007;-78
2022/04/10 10:54:33;;;;;;;13.10;5.20;;;;;;;17.09;70.53;100158.06;5034008;28;20099;-78
2022/04/10 10:56:58;;;;;;;12.95;4.88;;;;;;;17.11;70.63;100163.38;5018825;28;20040;-78
2022/04/10 10:59:31;;;;;;;16.40;5.32;;;;;;;17.07;70.63;100169.47;5053670;28;20025;-78
2022/04/10 11:02:10;;;;;;;14.13;4.95;;;;;;;17.09;70.74;100171.25;5053385;28;20549;-78
2022/04/10 11:04:39;;;;;;;11.30;5.05;;;;;;;17.04;70.72;100172.06;5053093;28;20060;-79
2022/04/10 11:07:24;;;;;;;14.55;5.18;;;;;;;17.15;70.44;100169.59;5052617;28;20027;-79
2022/04/10 11:09:58;;;;;;;15.05;5.10;;;;;;;17.09;70.50;100165.09;4999667;28;20033;-79
2022/04/10 11:12:33;;;;;;;14.80;4.95;;;;;;;17.12;70.68;100159.84;5033449;28;20041;-79
2022/04/10 11:15:29;;;;;;;13.68;4.97;;;;;;;17.13;70.45;100158.13;5033449;28;20095;-79
2022/04/10 11:17:55;;;;;;;12.52;4.72;;;;;;;17.17;70.30;100165.25;5013138;28;20423;-79
2022/04/10 11:20:22;;;;;;;13.55;4.88;;;;;;;17.19;70.49;100156.50;5032937;28;20164;-80
2022/04/10 11:23:06;;;;;;;10.73;5.03;;;;;;;17.11;70.51;100136.13;5038373;28;20511;-79
2022/04/10 11:28:16;;;;;;;11.77;4.95;;;;;;;17.16;70.40;100150.25;5052223;28;20040;-79
2022/04/10 11:30:45;;;;;;;12.68;5.38;;;;;;;17.15;70.49;100152.03;5048328;28;20025;-79
2022/04/10 11:33:12;;;;;;;9.98;4.53;;;;;;;17.16;70.54;100151.13;5051088;28;20030;-79